Time;durP1;ratioP1;P1;durP2;ratioP2;P2;SDS_P1;SDS_P2;PMS_P1;PMS_P2;Temp;Humidity;BMP_temperature;BMP_pressure;BME280_temperature;BME280_humidity;BME280_pressure;Samples;Min_cycle;Max_cycle;Signal;HPM_P1;HPM_P2
2021/09/18 00:01:22;;;;;;;20.83;14.37;;;13.40;99.90;;;;;;4869253;29;20239;-72
2021/09/18 00:03:51;;;;;;;20.90;14.13;;;13.40;99.90;;;;;;4870971;29;20696;-72
2021/09/18 00:06:19;;;;;;;19.87;14.67;;;13.40;99.90;;;;;;4872012;29;20222;-72
2021/09/18 00:08:49;;;;;;;22.27;14.30;;;13.40;99.90;;;;;;4871220;29;20215;-72
2021/09/18 00:11:18;;;;;;;19.93;13.90;;;13.30;99.90;;;;;;4871638;29;20202;-72
2021/09/18 00:13:46;;;;;;;17.17;12.97;;;13.30;99.90;;;;;;4870860;29;20262;-71
2021/09/18 00:16:17;;;;;;;18.57;14.20;;;13.20;99.90;;;;;;4852329;29;20668;-71
2021/09/18 00:18:45;;;;;;;20.30;14.50;;;13.10;99.90;;;;;;4867734;29;20334;-71
2021/09/18 00:21:14;;;;;;;20.00;14.73;;;13.10;99.90;;;;;;4872456;29;20226;-71
2021/09/18 00:23:42;;;;;;;20.10;14.77;;;13.10;99.90;;;;;;4859053;29;20203;-72
2021/09/18 00:26:12;;;;;;;20.23;14.63;;;13.10;99.90;;;;;;4870390;29;20629;-72
2021/09/18 00:28:40;;;;;;;22.40;15.27;;;13.10;99.90;;;;;;4856262;29;20209;-71
2021/09/18 00:31:09;;;;;;;18.87;14.63;;;13.10;99.90;;;;;;4868211;29;20221;-71
2021/09/18 00:33:37;;;;;;;19.47;15.27;;;13.10;99.90;;;;;;4873540;29;20206;-72
2021/09/18 00:36:06;;;;;;;22.93;15.30;;;13.00;99.90;;;;;;4872871;29;20202;-72
2021/09/18 00:38:34;;;;;;;20.03;14.70;;;13.00;99.90;;;;;;4869417;29;20206;-72
2021/09/18 00:41:03;;;;;;;20.43;15.53;;;13.00;99.90;;;;;;4864063;29;20819;-71
2021/09/18 00:43:33;;;;;;;22.47;15.10;;;12.90;99.90;;;;;;4867164;29;20251;-71
2021/09/18 00:46:01;;;;;;;19.83;14.73;;;12.90;99.90;;;;;;4870784;29;20214;-71
2021/09/18 00:48:30;;;;;;;21.10;14.63;;;12.90;99.90;;;;;;4869682;29;20289;-71
2021/09/18 00:50:58;;;;;;;21.23;15.53;;;12.80;99.90;;;;;;4872335;29;20195;-72
2021/09/18 00:53:27;;;;;;;24.00;16.97;;;12.80;99.90;;;;;;4871025;29;20207;-72
2021/09/18 00:55:56;;;;;;;24.10;15.67;;;12.80;99.90;;;;;;4870204;29;20237;-71
2021/09/18 00:58:24;;;;;;;25.80;16.43;;;12.80;99.90;;;;;;4863614;29;20205;-72
2021/09/18 01:00:54;;;;;;;24.00;17.20;;;12.80;99.90;;;;;;4863010;29;20261;-71
2021/09/18 01:03:22;;;;;;;23.57;16.13;;;12.70;99.90;;;;;;4858345;29;20667;-71
2021/09/18 01:05:51;;;;;;;23.87;16.73;;;12.70;99.90;;;;;;4869026;29;20209;-71
2021/09/18 01:08:23;;;;;;;25.20;17.73;;;12.70;99.90;;;;;;4876306;29;20235;-71
2021/09/18 01:10:52;;;;;;;27.30;19.03;;;12.70;99.90;;;;;;4867754;29;20216;-72
2021/09/18 01:13:21;;;;;;;25.73;17.87;;;12.70;99.90;;;;;;4872117;29;20266;-71
2021/09/18 01:15:51;;;;;;;25.93;17.77;;;12.70;99.90;;;;;;4864425;29;20779;-71
2021/09/18 01:18:21;;;;;;;27.53;18.27;;;12.70;99.90;;;;;;4871069;29;20211;-72
2021/09/18 01:20:49;;;;;;;28.60;18.80;;;12.70;99.90;;;;;;4869002;29;20226;-71
2021/09/18 01:23:20;;;;;;;33.57;20.77;;;12.70;99.90;;;;;;4850249;29;20227;-72
2021/09/18 01:25:49;;;;;;;29.60;19.90;;;12.60;99.90;;;;;;4866287;29;20552;-72
2021/09/18 01:28:18;;;;;;;27.80;19.10;;;12.60;99.90;;;;;;4856325;29;20234;-72
2021/09/18 01:30:47;;;;;;;32.20;19.30;;;12.60;99.90;;;;;;4868963;29;20194;-72
2021/09/18 01:33:17;;;;;;;31.87;19.63;;;12.60;99.90;;;;;;4858302;29;20203;-72
2021/09/18 01:35:46;;;;;;;31.73;20.87;;;12.60;99.90;;;;;;4860686;29;20234;-72
2021/09/18 01:38:14;;;;;;;37.43;21.63;;;12.60;99.90;;;;;;4866690;29;20263;-72
2021/09/18 01:40:47;;;;;;;34.30;20.10;;;12.60;99.90;;;;;;4842056;29;20250;-72
2021/09/18 01:43:16;;;;;;;32.67;20.67;;;12.60;99.90;;;;;;4873332;29;20670;-72
2021/09/18 01:45:45;;;;;;;34.17;21.33;;;12.60;99.90;;;;;;4863821;29;20442;-72
2021/09/18 01:48:15;;;;;;;30.63;19.93;;;12.50;99.90;;;;;;4868774;29;20190;-72
2021/09/18 01:50:47;;;;;;;33.40;19.50;;;12.50;99.90;;;;;;4868623;29;20207;-72
2021/09/18 01:53:17;;;;;;;29.67;19.87;;;12.50;99.90;;;;;;4862647;29;20195;-72
2021/09/18 01:55:48;;;;;;;32.80;20.03;;;12.50;99.90;;;;;;4866174;29;20734;-72
2021/09/18 01:58:17;;;;;;;26.13;18.60;;;12.50;99.90;;;;;;4863200;29;20446;-72
2021/09/18 02:00:48;;;;;;;37.50;23.03;;;12.40;99.90;;;;;;4866613;29;20223;-72
2021/09/18 02:03:17;;;;;;;41.23;25.03;;;12.40;99.90;;;;;;4867602;29;20761;-72
2021/09/18 02:05:46;;;;;;;37.87;22.03;;;12.40;99.90;;;;;;4867354;29;20270;-72
2021/09/18 02:08:14;;;;;;;33.30;20.23;;;12.40;99.90;;;;;;4875291;29;20624;-72
2021/09/18 02:10:43;;;;;;;31.33;19.70;;;12.40;99.90;;;;;;4874828;29;20519;-72
2021/09/18 02:13:14;;;;;;;28.47;18.80;;;12.30;99.90;;;;;;4878891;29;20231;-72
2021/09/18 02:15:47;;;;;;;28.37;19.93;;;12.30;99.90;;;;;;4871310;29;20209;-72
2021/09/18 02:18:16;;;;;;;33.60;20.57;;;12.30;99.90;;;;;;4859508;29;20201;-72
2021/09/18 02:20:45;;;;;;;31.27;20.80;;;12.30;99.90;;;;;;4877002;29;20277;-72
2021/09/18 02:23:14;;;;;;;28.60;18.97;;;12.30;99.90;;;;;;4873883;29;20628;-72
2021/09/18 02:25:44;;;;;;;24.83;18.00;;;12.30;99.90;;;;;;4872790;29;20270;-72
2021/09/18 02:28:14;;;;;;;23.83;17.23;;;12.20;99.90;;;;;;4872725;29;20201;-72
2021/09/18 02:30:42;;;;;;;28.47;18.37;;;12.20;99.90;;;;;;4871159;29;20703;-72
2021/09/18 02:33:11;;;;;;;21.30;17.43;;;12.10;99.90;;;;;;4875144;29;20500;-72
2021/09/18 02:35:39;;;;;;;24.27;17.20;;;12.10;99.90;;;;;;4877576;29;20285;-72
2021/09/18 02:38:08;;;;;;;22.73;15.53;;;12.00;99.90;;;;;;4877355;29;20191;-72
2021/09/18 02:40:40;;;;;;;23.30;16.43;;;11.90;99.90;;;;;;4875419;29;20242;-72
2021/09/18 02:43:09;;;;;;;22.33;16.53;;;11.90;99.90;;;;;;4875173;29;20243;-72
2021/09/18 02:45:39;;;;;;;20.43;15.93;;;11.90;99.90;;;;;;4873960;29;20290;-72
2021/09/18 02:48:08;;;;;;;21.40;16.20;;;11.80;99.90;;;;;;4855783;29;20205;-72
2021/09/18 02:50:41;;;;;;;21.00;15.37;;;11.80;99.90;;;;;;4855227;29;20297;-72
2021/09/18 02:53:23;;;;;;;26.97;16.47;;;11.80;99.90;;;;;;4844461;29;20278;-72
2021/09/18 02:55:54;;;;;;;24.23;16.40;;;11.70;99.90;;;;;;4877761;29;20269;-72
2021/09/18 02:58:23;;;;;;;21.23;15.30;;;11.60;99.90;;;;;;4859218;29;20235;-72
2021/09/18 03:00:53;;;;;;;25.77;16.83;;;11.60;99.90;;;;;;4866318;29;20666;-72
2021/09/18 03:03:21;;;;;;;27.77;18.17;;;11.70;99.90;;;;;;4856595;29;20206;-72
2021/09/18 03:05:50;;;;;;;26.70;17.17;;;11.70;99.90;;;;;;4874616;29;20690;-72
2021/09/18 03:08:19;;;;;;;28.33;18.50;;;11.70;99.90;;;;;;4857660;29;20602;-72
2021/09/18 03:10:47;;;;;;;28.77;18.50;;;11.70;99.90;;;;;;4874804;29;20730;-72
2021/09/18 03:13:15;;;;;;;27.13;17.97;;;11.70;99.90;;;;;;4876512;29;20694;-72
2021/09/18 03:15:46;;;;;;;25.17;17.73;;;11.60;99.90;;;;;;4869942;29;20201;-72
2021/09/18 03:18:16;;;;;;;25.80;18.33;;;11.60;99.90;;;;;;4855089;29;20198;-72
2021/09/18 03:20:44;;;;;;;28.10;17.67;;;11.60;99.90;;;;;;4873586;29;20230;-72
2021/09/18 03:23:13;;;;;;;27.70;18.67;;;11.60;99.90;;;;;;4855925;29;20278;-72
2021/09/18 03:25:43;;;;;;;34.87;21.13;;;11.50;99.90;;;;;;4856253;29;20559;-72
2021/09/18 03:28:13;;;;;;;30.93;20.93;;;11.50;99.90;;;;;;4851496;29;20209;-72
2021/09/18 03:30:41;;;;;;;35.50;22.10;;;11.50;99.90;;;;;;4855764;29;20677;-72
2021/09/18 03:33:11;;;;;;;41.33;24.50;;;11.50;99.90;;;;;;4829502;29;20255;-72
2021/09/18 03:35:47;;;;;;;44.07;24.03;;;11.50;99.90;;;;;;4840726;29;20278;-72
2021/09/18 03:38:16;;;;;;;40.90;23.17;;;11.50;99.90;;;;;;4851209;29;20294;-72
2021/09/18 03:40:52;;;;;;;37.53;23.00;;;11.50;99.90;;;;;;4839791;29;20333;-72
2021/09/18 03:43:37;;;;;;;34.50;22.33;;;11.50;99.90;;;;;;4836028;29;20199;-72
2021/09/18 03:46:05;;;;;;;39.43;21.90;;;11.40;99.90;;;;;;4869436;29;20210;-72
2021/09/18 03:48:34;;;;;;;35.73;22.73;;;11.40;99.90;;;;;;4855460;29;20222;-72
2021/09/18 03:51:04;;;;;;;37.43;22.77;;;11.40;99.90;;;;;;4875423;29;20210;-72
2021/09/18 03:53:33;;;;;;;38.43;23.17;;;11.30;99.90;;;;;;4868234;29;20286;-72
2021/09/18 03:56:01;;;;;;;37.30;22.40;;;11.30;99.90;;;;;;4855294;29;20567;-72
2021/09/18 03:58:30;;;;;;;33.70;21.50;;;11.30;99.90;;;;;;4852089;29;20234;-72
2021/09/18 04:00:59;;;;;;;36.83;21.90;;;11.30;99.90;;;;;;4856845;29;20195;-72
2021/09/18 04:03:27;;;;;;;37.83;22.90;;;11.30;99.90;;;;;;4865883;29;20223;-72
2021/09/18 04:05:56;;;;;;;37.70;23.40;;;11.30;99.90;;;;;;4870965;29;20209;-72
2021/09/18 04:08:26;;;;;;;41.20;24.53;;;11.30;99.90;;;;;;4864322;29;20195;-72
2021/09/18 04:10:55;;;;;;;36.70;23.50;;;11.30;99.90;;;;;;4873905;29;20234;-72
2021/09/18 04:13:23;;;;;;;43.67;25.33;;;11.30;99.90;;;;;;4873838;29;20258;-71
2021/09/18 04:16:33;;;;;;;44.13;26.83;;;11.30;99.90;;;;;;4862765;29;20295;-72
2021/09/18 04:19:10;;;;;;;45.80;26.17;;;11.30;99.90;;;;;;4857617;29;20226;-72
2021/09/18 04:22:21;;;;;;;41.73;25.03;;;11.30;99.90;;;;;;4873789;29;20690;-72
2021/09/18 04:24:52;;;;;;;38.77;24.23;;;11.30;99.90;;;;;;4837674;29;20294;-72
2021/09/18 04:27:21;;;;;;;39.77;24.47;;;11.30;99.90;;;;;;4858854;29;20258;-72
2021/09/18 04:29:49;;;;;;;42.70;24.47;;;11.30;99.90;;;;;;4854908;29;20198;-71
2021/09/18 04:32:18;;;;;;;44.33;26.43;;;11.20;99.90;;;;;;4877388;29;20226;-71
2021/09/18 04:34:46;;;;;;;48.03;27.67;;;11.20;99.90;;;;;;4858612;29;20203;-71
2021/09/18 04:37:17;;;;;;;39.13;24.27;;;11.20;99.90;;;;;;4858301;29;20616;-71
2021/09/18 04:39:46;;;;;;;46.10;25.43;;;11.20;99.90;;;;;;4856737;29;20634;-71
2021/09/18 04:42:18;;;;;;;41.87;25.37;;;11.20;99.90;;;;;;4863163;29;20278;-71
2021/09/18 04:44:48;;;;;;;41.20;25.10;;;11.20;99.90;;;;;;4854264;29;20202;-71
2021/09/18 04:47:25;;;;;;;42.87;24.00;;;11.10;99.90;;;;;;4840140;29;20199;-71
2021/09/18 04:49:54;;;;;;;37.93;24.00;;;11.10;99.90;;;;;;4876702;29;20218;-71
2021/09/18 04:52:44;;;;;;;37.90;23.47;;;11.10;99.90;;;;;;4882298;29;20203;-71
2021/09/18 04:55:13;;;;;;;40.50;24.97;;;11.10;99.90;;;;;;4854984;29;20211;-71
2021/09/18 04:57:46;;;;;;;35.53;21.97;;;11.10;99.90;;;;;;4873377;29;20729;-71
2021/09/18 05:00:15;;;;;;;34.23;22.10;;;11.10;99.90;;;;;;4854490;29;20199;-72
2021/09/18 05:02:43;;;;;;;36.60;22.40;;;11.10;99.90;;;;;;4870681;29;20242;-71
2021/09/18 05:05:12;;;;;;;38.30;23.73;;;11.10;99.90;;;;;;4860013;29;20194;-72
2021/09/18 05:07:41;;;;;;;37.37;22.60;;;11.00;99.90;;;;;;4871324;29;20256;-72
2021/09/18 05:10:10;;;;;;;36.10;22.13;;;11.00;99.90;;;;;;4867632;29;20203;-72
2021/09/18 05:12:40;;;;;;;37.43;21.57;;;11.00;99.90;;;;;;4870294;29;20199;-72
2021/09/18 05:15:11;;;;;;;33.10;20.80;;;11.00;99.90;;;;;;4882639;29;20242;-72
2021/09/18 05:17:39;;;;;;;34.93;21.57;;;10.90;99.90;;;;;;4853275;29;20750;-72
2021/09/18 05:20:09;;;;;;;37.33;21.53;;;10.90;99.90;;;;;;4869188;29;20357;-72
2021/09/18 05:22:37;;;;;;;39.20;20.40;;;10.90;99.90;;;;;;4873152;29;20326;-72
2021/09/18 05:25:08;;;;;;;34.43;21.10;;;10.90;99.90;;;;;;4859828;29;20710;-72
2021/09/18 05:27:36;;;;;;;37.13;21.73;;;10.90;99.90;;;;;;4864970;29;20207;-72
2021/09/18 05:30:07;;;;;;;42.10;24.10;;;10.90;99.90;;;;;;4872803;29;20211;-72
2021/09/18 05:32:37;;;;;;;37.83;21.87;;;10.90;99.90;;;;;;4871769;29;20663;-72
2021/09/18 05:35:07;;;;;;;36.23;22.93;;;10.90;99.90;;;;;;4873813;29;20242;-72
2021/09/18 05:37:36;;;;;;;36.87;23.20;;;10.90;99.90;;;;;;4871269;29;20207;-72
2021/09/18 05:40:06;;;;;;;39.07;24.53;;;10.90;99.90;;;;;;4866011;29;20281;-72
2021/09/18 05:42:36;;;;;;;40.40;23.83;;;10.90;99.90;;;;;;4881750;29;20218;-72
2021/09/18 05:45:07;;;;;;;36.63;23.40;;;10.90;99.90;;;;;;4872317;29;20196;-71
2021/09/18 05:47:37;;;;;;;38.70;24.27;;;10.90;99.90;;;;;;4863606;29;20203;-72
2021/09/18 05:50:06;;;;;;;37.27;23.20;;;11.00;99.90;;;;;;4879490;29;20295;-71
2021/09/18 05:52:34;;;;;;;45.13;24.20;;;11.00;99.90;;;;;;4853010;29;20209;-72
2021/09/18 05:55:05;;;;;;;37.60;23.13;;;11.00;99.90;;;;;;4864611;29;20214;-72
2021/09/18 05:57:33;;;;;;;41.40;24.80;;;11.00;99.90;;;;;;4849438;29;20210;-72
2021/09/18 06:00:01;;;;;;;51.57;27.40;;;11.10;99.90;;;;;;4867805;29;20286;-72
2021/09/18 06:02:37;;;;;;;50.83;27.77;;;11.10;99.90;;;;;;4866168;29;20722;-72
2021/09/18 06:05:08;;;;;;;53.40;27.30;;;11.20;99.90;;;;;;4874134;29;20281;-72
2021/09/18 06:07:36;;;;;;;45.87;26.60;;;11.30;99.90;;;;;;4852093;29;20742;-72
2021/09/18 06:10:06;;;;;;;53.83;26.57;;;11.30;99.90;;;;;;4830351;29;20203;-72
2021/09/18 06:12:35;;;;;;;45.70;27.50;;;11.30;99.90;;;;;;4874117;29;20686;-72
2021/09/18 06:15:05;;;;;;;48.70;28.80;;;11.40;99.90;;;;;;4864116;29;20916;-72
2021/09/18 06:17:34;;;;;;;44.77;27.07;;;11.50;99.90;;;;;;4866102;29;20203;-72
2021/09/18 06:20:04;;;;;;;51.97;28.07;;;11.50;99.90;;;;;;4868972;29;20289;-72
2021/09/18 06:22:33;;;;;;;48.60;27.40;;;11.60;99.90;;;;;;4860952;29;20203;-72
2021/09/18 06:25:01;;;;;;;62.90;32.70;;;11.60;99.90;;;;;;4869262;29;20290;-72
2021/09/18 06:27:32;;;;;;;62.23;34.07;;;11.80;99.90;;;;;;4865820;29;20215;-72
2021/09/18 06:30:01;;;;;;;71.57;35.53;;;12.00;99.90;;;;;;4865410;29;20203;-73
2021/09/18 06:32:30;;;;;;;57.40;33.43;;;12.20;99.90;;;;;;4865647;29;20199;-72
2021/09/18 06:35:03;;;;;;;64.30;33.03;;;12.30;99.90;;;;;;4866240;29;20250;-73
2021/09/18 06:37:41;;;;;;;58.17;32.50;;;12.40;99.90;;;;;;4872180;29;20206;-73
2021/09/18 06:40:11;;;;;;;69.13;34.97;;;12.40;99.90;;;;;;4857516;29;20257;-72
2021/09/18 06:42:42;;;;;;;64.53;35.63;;;12.50;99.90;;;;;;4848231;29;20282;-72
2021/09/18 06:45:12;;;;;;;64.80;36.67;;;12.60;99.90;;;;;;4846849;29;20241;-73
2021/09/18 06:47:40;;;;;;;77.77;40.13;;;12.90;99.90;;;;;;4869768;29;20211;-72
2021/09/18 06:50:12;;;;;;;70.13;37.70;;;13.10;99.90;;;;;;4865694;29;20191;-73
2021/09/18 06:52:40;;;;;;;70.53;39.83;;;13.50;99.90;;;;;;4875512;29;20200;-72
2021/09/18 06:55:09;;;;;;;66.40;36.73;;;13.70;99.90;;;;;;4875922;29;20204;-72
2021/09/18 06:57:38;;;;;;;60.00;33.90;;;14.00;99.90;;;;;;4877568;29;20266;-73
2021/09/18 07:00:08;;;;;;;58.73;33.90;;;14.20;99.90;;;;;;4873284;29;20215;-72
2021/09/18 07:02:37;;;;;;;57.87;34.00;;;14.40;99.90;;;;;;4860811;29;20607;-72
2021/09/18 07:05:11;;;;;;;59.83;32.53;;;14.60;99.90;;;;;;4878016;29;20428;-72
2021/09/18 07:07:39;;;;;;;53.63;32.73;;;14.80;99.90;;;;;;4872980;29;20206;-72
2021/09/18 07:10:11;;;;;;;52.63;31.93;;;15.00;99.90;;;;;;4878633;29;20569;-72
2021/09/18 07:12:40;;;;;;;58.07;31.60;;;15.10;99.90;;;;;;4874882;29;20207;-72
2021/09/18 07:15:10;;;;;;;50.20;30.37;;;15.40;99.90;;;;;;4872848;29;20286;-72
2021/09/18 07:17:39;;;;;;;48.47;30.67;;;15.60;99.90;;;;;;4873529;29;20429;-72
2021/09/18 07:20:13;;;;;;;47.50;30.20;;;15.70;99.90;;;;;;4880698;29;20478;-72
2021/09/18 07:22:42;;;;;;;49.43;30.70;;;15.90;99.90;;;;;;4877877;29;20234;-72
2021/09/18 07:25:12;;;;;;;48.07;30.00;;;15.90;99.90;;;;;;4882063;29;20644;-73
2021/09/18 07:27:46;;;;;;;47.17;29.23;;;16.10;99.90;;;;;;4870555;29;20286;-71
2021/09/18 07:30:14;;;;;;;52.27;30.90;;;16.20;99.90;;;;;;4874729;29;20195;-73
2021/09/18 07:32:43;;;;;;;45.77;27.57;;;16.40;99.90;;;;;;4866507;29;20251;-72
2021/09/18 07:35:13;;;;;;;41.17;26.73;;;16.50;99.90;;;;;;4882228;29;20227;-72
2021/09/18 07:37:42;;;;;;;39.67;26.27;;;16.60;99.90;;;;;;4877988;29;20195;-72
2021/09/18 07:40:12;;;;;;;42.57;25.90;;;16.70;99.90;;;;;;4883534;29;20243;-72
2021/09/18 07:42:41;;;;;;;35.80;24.60;;;16.80;99.90;;;;;;4870009;29;20246;-72
2021/09/18 07:45:11;;;;;;;38.97;26.10;;;17.00;99.90;;;;;;4882031;29;20219;-72
2021/09/18 07:47:40;;;;;;;35.13;24.70;;;17.00;99.90;;;;;;4876077;29;20198;-72
2021/09/18 07:50:10;;;;;;;37.60;24.60;;;17.30;99.90;;;;;;4884755;29;20200;-72
2021/09/18 07:52:40;;;;;;;37.50;24.80;;;17.50;99.90;;;;;;4877824;29;20227;-73
2021/09/18 07:55:10;;;;;;;33.67;22.97;;;17.60;99.90;;;;;;4855642;29;20199;-72
2021/09/18 07:57:58;;;;;;;35.07;22.60;;;17.70;99.90;;;;;;4876258;29;20200;-72
2021/09/18 08:00:27;;;;;;;30.47;22.07;;;17.70;99.90;;;;;;4863194;29;20299;-72
2021/09/18 08:02:56;;;;;;;31.73;21.67;;;17.80;99.90;;;;;;4874632;29;20717;-72
2021/09/18 08:05:28;;;;;;;28.30;18.40;;;17.90;99.90;;;;;;4850437;29;20234;-72
2021/09/18 08:08:01;;;;;;;32.33;20.70;;;18.10;99.90;;;;;;4869435;29;20247;-72
2021/09/18 08:10:32;;;;;;;28.63;19.43;;;18.20;99.90;;;;;;4876757;29;20207;-72
2021/09/18 08:13:01;;;;;;;26.83;19.07;;;18.30;99.90;;;;;;4873453;29;20639;-73
2021/09/18 08:15:30;;;;;;;25.33;18.90;;;18.40;99.90;;;;;;4875481;29;20228;-72
2021/09/18 08:17:58;;;;;;;25.10;18.23;;;18.60;99.90;;;;;;4878059;29;20201;-72
2021/09/18 08:20:27;;;;;;;23.80;16.97;;;18.70;99.90;;;;;;4877863;29;20199;-72
2021/09/18 08:22:55;;;;;;;23.23;16.77;;;18.70;99.90;;;;;;4873883;29;20236;-72
2021/09/18 08:25:26;;;;;;;24.00;16.83;;;18.80;99.90;;;;;;4872519;29;20718;-72
2021/09/18 08:27:54;;;;;;;21.83;15.90;;;18.90;99.90;;;;;;4876285;29;20259;-72
2021/09/18 08:30:23;;;;;;;20.83;14.97;;;19.00;99.90;;;;;;4874151;29;20238;-72
2021/09/18 08:32:52;;;;;;;18.10;14.23;;;19.20;99.90;;;;;;4878402;29;20679;-72
2021/09/18 08:35:21;;;;;;;19.97;14.57;;;19.30;99.90;;;;;;4874007;29;20194;-72
2021/09/18 08:37:49;;;;;;;19.03;14.20;;;19.30;99.90;;;;;;4877662;29;20197;-72
2021/09/18 08:40:18;;;;;;;16.03;12.83;;;19.40;99.90;;;;;;4874827;29;20275;-72
2021/09/18 08:42:48;;;;;;;18.53;13.80;;;19.40;99.90;;;;;;4856364;29;20744;-72
2021/09/18 08:45:17;;;;;;;18.07;13.77;;;19.60;99.90;;;;;;4869991;29;20305;-72
2021/09/18 08:47:45;;;;;;;18.23;13.50;;;19.70;99.90;;;;;;4880017;29;20247;-72
2021/09/18 08:50:15;;;;;;;19.37;13.70;;;19.80;99.90;;;;;;4856323;29;20237;-72
2021/09/18 08:52:44;;;;;;;14.33;11.17;;;19.80;99.90;;;;;;4870895;29;20258;-72
2021/09/18 08:55:13;;;;;;;16.67;11.70;;;19.90;99.90;;;;;;4868615;29;20255;-72
2021/09/18 08:57:42;;;;;;;13.33;10.17;;;20.10;99.90;;;;;;4875941;29;20198;-72
2021/09/18 09:00:43;;;;;;;15.77;11.23;;;20.20;99.90;;;;;;4874897;29;20285;-72
2021/09/18 09:03:13;;;;;;;13.37;10.67;;;20.30;99.90;;;;;;4873964;29;20637;-72
2021/09/18 09:05:45;;;;;;;9.67;8.00;;;20.30;99.90;;;;;;4874912;29;20579;-72
2021/09/18 09:08:15;;;;;;;8.33;7.47;;;20.40;99.90;;;;;;4873607;29;20214;-71
2021/09/18 09:10:45;;;;;;;8.10;7.30;;;20.50;99.90;;;;;;4878639;29;20617;-72
2021/09/18 09:13:15;;;;;;;10.77;7.40;;;20.50;99.90;;;;;;4874084;29;20191;-71
2021/09/18 09:15:46;;;;;;;8.70;7.23;;;20.60;99.90;;;;;;4873621;29;20666;-71
2021/09/18 09:18:16;;;;;;;8.53;7.63;;;20.70;99.90;;;;;;4857946;29;20202;-71
2021/09/18 09:20:45;;;;;;;8.13;7.33;;;20.80;99.90;;;;;;4858911;29;20219;-72
2021/09/18 09:23:19;;;;;;;9.17;6.70;;;20.90;99.90;;;;;;4870560;29;20195;-72
2021/09/18 09:25:51;;;;;;;7.53;6.73;;;21.00;99.90;;;;;;4874708;29;20354;-72
2021/09/18 09:28:26;;;;;;;8.57;6.67;;;21.10;99.90;;;;;;4872211;29;20202;-72
2021/09/18 09:31:01;;;;;;;8.03;6.93;;;21.20;99.90;;;;;;4886741;29;20713;-71
2021/09/18 09:33:29;;;;;;;7.13;6.43;;;21.30;99.90;;;;;;4891029;29;20209;-72
2021/09/18 09:36:13;;;;;;;6.67;6.07;;;21.40;99.90;;;;;;4879462;29;20199;-71
2021/09/18 09:38:51;;;;;;;6.90;5.50;;;21.50;99.90;;;;;;4861447;29;20189;-72
2021/09/18 09:41:34;;;;;;;6.47;5.87;;;21.60;99.90;;;;;;4875430;29;20285;-71
2021/09/18 09:44:04;;;;;;;6.23;5.63;;;21.70;99.90;;;;;;4885390;29;20236;-71
2021/09/18 09:46:35;;;;;;;6.17;5.57;;;21.80;99.90;;;;;;4885440;29;20451;-71
2021/09/18 09:49:06;;;;;;;5.80;5.30;;;21.90;99.90;;;;;;4875780;29;20214;-71
2021/09/18 09:51:34;;;;;;;6.03;5.53;;;21.90;99.90;;;;;;4883775;29;20581;-72
2021/09/18 09:54:20;;;;;;;8.13;5.00;;;22.00;99.90;;;;;;4879185;29;20198;-72
2021/09/18 09:56:49;;;;;;;7.57;6.77;;;22.20;99.90;;;;;;4875687;29;20207;-71
2021/09/18 09:59:30;;;;;;;6.73;6.13;;;22.30;99.90;;;;;;4865356;29;20477;-71
2021/09/18 10:02:00;;;;;;;6.97;6.20;;;22.40;99.90;;;;;;4871774;29;20262;-71
2021/09/18 10:04:28;;;;;;;6.17;5.43;;;22.40;99.90;;;;;;4871432;29;20206;-71
2021/09/18 10:06:57;;;;;;;5.30;4.90;;;22.40;99.90;;;;;;4879449;29;20325;-71
2021/09/18 10:09:27;;;;;;;7.03;5.93;;;22.30;99.90;;;;;;4873718;29;20280;-76
2021/09/18 10:11:56;;;;;;;7.80;5.97;;;22.60;99.90;;;;;;4872016;29;20258;-76
2021/09/18 10:14:27;;;;;;;9.03;8.10;;;22.80;99.90;;;;;;4868895;29;20194;-76
2021/09/18 10:16:57;;;;;;;10.30;8.50;;;22.90;99.90;;;;;;4871912;29;20540;-76
2021/09/18 10:25:05;;;;;;;7.83;7.00;;;23.20;99.90;;;;;;4854398;29;20223;-78
2021/09/18 10:27:33;;;;;;;10.33;7.80;;;23.20;99.90;;;;;;4881160;29;20549;-77
2021/09/18 10:30:02;;;;;;;8.57;7.17;;;23.40;99.90;;;;;;4881781;29;20203;-77
2021/09/18 10:32:46;;;;;;;8.93;7.40;;;23.40;99.90;;;;;;4877662;29;21558;-78
2021/09/18 10:35:17;;;;;;;8.47;7.40;;;23.30;99.90;;;;;;4878255;29;20259;-76
2021/09/18 10:37:45;;;;;;;8.73;7.53;;;23.40;99.90;;;;;;4864891;29;20227;-76
2021/09/18 10:40:17;;;;;;;6.90;6.20;;;23.30;99.90;;;;;;4877658;29;20205;-76
2021/09/18 10:42:49;;;;;;;7.20;6.60;;;23.30;99.90;;;;;;4858041;29;20300;-73
2021/09/18 10:45:19;;;;;;;7.97;6.60;;;23.20;99.90;;;;;;4854668;29;20211;-71
2021/09/18 10:47:50;;;;;;;9.30;6.10;;;23.20;99.90;;;;;;4861195;29;20675;-71
2021/09/18 10:50:40;;;;;;;6.57;5.87;;;23.20;99.90;;;;;;4852716;29;20329;-72
2021/09/18 10:53:11;;;;;;;6.90;6.00;;;23.30;99.90;;;;;;4843571;29;20200;-72
2021/09/18 10:55:54;;;;;;;8.07;5.83;;;23.40;99.90;;;;;;4855533;29;20212;-72
2021/09/18 10:58:24;;;;;;;6.70;6.10;;;23.50;99.90;;;;;;4853171;29;20685;-71
2021/09/18 11:00:56;;;;;;;6.77;6.00;;;23.60;99.90;;;;;;4856241;29;20234;-71
2021/09/18 11:03:37;;;;;;;5.83;5.40;;;23.70;99.90;;;;;;4855231;29;20208;-71
2021/09/18 11:06:10;;;;;;;5.97;5.43;;;23.70;99.90;;;;;;4857726;29;20222;-72
2021/09/18 11:08:52;;;;;;;8.07;6.30;;;23.80;99.90;;;;;;4859118;29;20291;-71
2021/09/18 11:11:26;;;;;;;6.70;6.03;;;23.80;99.90;;;;;;4851903;29;20204;-72
2021/09/18 11:13:59;;;;;;;5.63;5.13;;;23.80;99.90;;;;;;4858050;29;20256;-72
2021/09/18 11:16:32;;;;;;;6.73;6.03;;;23.80;99.90;;;;;;4853954;29;20318;-72
2021/09/18 11:19:08;;;;;;;8.07;6.83;;;23.80;99.90;;;;;;4854232;29;20207;-71
2021/09/18 11:21:40;;;;;;;6.07;5.57;;;23.70;99.90;;;;;;4854447;29;20208;-71
2021/09/18 11:24:24;;;;;;;6.03;5.43;;;23.80;99.90;;;;;;4850359;29;20389;-71
2021/09/18 11:26:53;;;;;;;7.10;6.40;;;23.80;99.90;;;;;;4854478;29;20227;-71
2021/09/18 11:29:34;;;;;;;8.27;6.63;;;23.80;99.90;;;;;;4857066;29;20635;-71
2021/09/18 11:32:14;;;;;;;7.43;6.67;;;24.00;99.90;;;;;;4856605;29;20224;-71
2021/09/18 11:34:48;;;;;;;6.30;5.70;;;24.10;99.90;;;;;;4858032;29;20204;-72
2021/09/18 11:37:26;;;;;;;6.53;5.87;;;24.20;99.90;;;;;;4857652;29;20243;-72
2021/09/18 11:39:58;;;;;;;5.20;4.80;;;24.50;99.90;;;;;;4854435;29;20215;-71
2021/09/18 11:42:38;;;;;;;6.73;5.57;;;24.70;99.90;;;;;;4869537;29;20268;-71
2021/09/18 11:45:11;;;;;;;6.10;5.60;;;24.60;99.90;;;;;;4871745;29;20222;-71
2021/09/18 11:47:42;;;;;;;7.47;6.23;;;24.40;99.90;;;;;;4851982;29;20672;-72
2021/09/18 11:50:23;;;;;;;6.50;6.00;;;24.20;99.90;;;;;;4871928;29;20204;-72
2021/09/18 11:52:55;;;;;;;6.20;5.60;;;24.10;99.90;;;;;;4869863;29;20231;-72
2021/09/18 11:55:46;;;;;;;6.33;5.73;;;24.00;99.90;;;;;;4874837;29;20236;-72
2021/09/18 11:58:16;;;;;;;6.70;6.10;;;24.00;99.90;;;;;;4865767;29;20500;-72
2021/09/18 12:00:48;;;;;;;7.47;6.77;;;24.00;99.90;;;;;;4883254;29;20200;-72
2021/09/18 12:03:21;;;;;;;6.33;5.73;;;24.00;99.90;;;;;;4864351;29;20561;-72
2021/09/18 12:05:52;;;;;;;6.03;5.60;;;24.00;99.90;;;;;;4878907;29;20290;-72
2021/09/18 12:08:23;;;;;;;5.73;5.33;;;23.80;99.90;;;;;;4864216;29;20261;-72
2021/09/18 12:10:54;;;;;;;5.77;5.27;;;23.70;99.90;;;;;;4886220;29;20234;-72
2021/09/18 12:13:23;;;;;;;5.37;4.93;;;23.60;99.90;;;;;;4879047;29;20195;-72
2021/09/18 12:15:54;;;;;;;6.03;5.53;;;23.50;99.90;;;;;;4875977;29;20207;-72
2021/09/18 12:18:25;;;;;;;5.27;4.83;;;23.50;99.90;;;;;;4877455;29;20187;-72
2021/09/18 12:20:58;;;;;;;4.20;3.90;;;23.60;99.90;;;;;;4876705;29;20510;-72
2021/09/18 12:23:31;;;;;;;8.57;5.40;;;23.50;99.90;;;;;;4875884;29;20221;-72
2021/09/18 12:26:06;;;;;;;4.90;4.50;;;23.40;99.90;;;;;;4875768;29;20675;-72
2021/09/18 12:28:35;;;;;;;4.80;4.50;;;23.30;99.90;;;;;;4880315;29;20199;-72
2021/09/18 12:31:15;;;;;;;4.87;4.20;;;23.30;99.90;;;;;;4874660;29;20668;-72
2021/09/18 12:33:45;;;;;;;4.17;3.87;;;23.30;99.90;;;;;;4875401;29;20196;-72
2021/09/18 12:36:15;;;;;;;5.03;4.17;;;23.30;99.90;;;;;;4878677;29;20245;-72
2021/09/18 12:38:46;;;;;;;5.50;5.10;;;23.40;99.90;;;;;;4875250;29;20227;-72
2021/09/18 12:41:17;;;;;;;6.80;6.20;;;23.40;99.90;;;;;;4855176;29;20244;-72
2021/09/18 12:43:55;;;;;;;6.73;6.13;;;23.40;99.90;;;;;;4858018;29;20605;-72
2021/09/18 12:46:25;;;;;;;6.33;5.50;;;23.30;99.90;;;;;;4867658;29;20272;-72
2021/09/18 12:48:58;;;;;;;10.13;7.23;;;23.30;99.90;;;;;;4858195;29;20227;-72
2021/09/18 12:51:28;;;;;;;6.07;5.47;;;23.30;99.90;;;;;;4861596;29;20230;-72
2021/09/18 12:54:01;;;;;;;5.50;5.10;;;23.50;99.90;;;;;;4860515;29;20200;-73
2021/09/18 12:56:35;;;;;;;6.50;5.90;;;23.60;99.90;;;;;;4855468;29;20446;-72
2021/09/18 12:59:15;;;;;;;5.80;5.40;;;23.60;99.90;;;;;;4856494;29;20200;-72